createdAt,value
2023-03-23T00:00:04.062Z,12.94
2023-03-23T00:01:03.990Z,13.00
2023-03-23T00:02:04.086Z,13.00
2023-03-23T00:03:04.146Z,13.00
2023-03-23T00:04:04.396Z,13.00
2023-03-23T00:05:04.385Z,13.00
2023-03-23T00:06:04.323Z,13.00
2023-03-23T00:07:04.324Z,12.94
2023-03-23T00:08:04.224Z,13.00
2023-03-23T00:09:04.229Z,13.00
2023-03-23T00:10:04.330Z,13.00
2023-03-23T00:11:04.307Z,13.00
2023-03-23T00:12:04.324Z,13.00
2023-03-23T00:13:04.420Z,13.00
2023-03-23T00:14:04.299Z,13.00
2023-03-23T00:15:04.301Z,13.00
2023-03-23T00:16:04.541Z,13.00
2023-03-23T00:17:04.332Z,13.00
2023-03-23T00:18:04.409Z,13.00
2023-03-23T00:19:04.321Z,13.00
2023-03-23T00:20:04.231Z,13.00
2023-03-23T00:21:04.302Z,13.00
2023-03-23T00:22:04.498Z,13.00
2023-03-23T00:23:04.415Z,13.00
2023-03-23T00:24:04.328Z,13.06
2023-03-23T00:25:04.506Z,13.06
2023-03-23T00:26:04.472Z,13.00
2023-03-23T00:27:04.405Z,13.00
2023-03-23T00:28:04.392Z,13.00
2023-03-23T00:29:04.471Z,13.06
2023-03-23T00:30:04.468Z,13.06
2023-03-23T00:31:04.470Z,13.06
2023-03-23T00:32:04.393Z,13.06
2023-03-23T00:33:04.301Z,13.00
2023-03-23T00:34:04.330Z,13.00
2023-03-23T00:35:04.385Z,13.00
2023-03-23T00:36:04.438Z,13.00
2023-03-23T00:37:04.299Z,13.00
2023-03-23T00:38:04.338Z,13.00
2023-03-23T00:39:04.418Z,13.00
2023-03-23T00:40:04.244Z,13.00
2023-03-23T00:41:04.399Z,13.00
2023-03-23T00:42:04.260Z,13.00
2023-03-23T00:43:04.262Z,13.00
2023-03-23T00:44:04.224Z,13.00
2023-03-23T00:45:04.226Z,13.00
2023-03-23T00:46:04.162Z,13.00
2023-03-23T00:47:04.142Z,13.00
2023-03-23T00:48:04.222Z,13.00
2023-03-23T00:49:04.228Z,13.00
2023-03-23T00:50:04.154Z,13.00
2023-03-23T00:51:04.321Z,13.00
2023-03-23T00:52:04.305Z,13.00
2023-03-23T00:53:04.247Z,12.94
2023-03-23T00:54:04.234Z,12.94
2023-03-23T00:55:04.240Z,12.94
2023-03-23T00:56:04.250Z,13.00
2023-03-23T00:57:04.246Z,13.00
2023-03-23T00:58:04.173Z,13.00
2023-03-23T00:59:04.092Z,13.00
2023-03-23T01:00:05.430Z,13.00
2023-03-23T01:01:03.986Z,13.00
2023-03-23T01:02:04.952Z,13.00
2023-03-23T01:03:04.071Z,13.00
2023-03-23T01:04:04.022Z,12.94
2023-03-23T01:05:04.077Z,12.94
2023-03-23T01:06:04.062Z,12.94
2023-03-23T01:07:04.116Z,12.94
2023-03-23T01:08:04.060Z,12.94
2023-03-23T01:09:04.146Z,12.94
2023-03-23T01:10:04.231Z,12.94
2023-03-23T01:11:03.561Z,12.94
2023-03-23T01:12:03.612Z,12.94
2023-03-23T01:13:03.600Z,12.94
2023-03-23T01:14:03.584Z,12.94
2023-03-23T01:15:03.687Z,12.94
2023-03-23T01:16:03.693Z,12.94
2023-03-23T01:17:03.775Z,12.94
2023-03-23T01:18:03.747Z,12.94
2023-03-23T01:19:03.781Z,12.88
2023-03-23T01:20:03.774Z,12.94
2023-03-23T01:21:03.781Z,12.94
2023-03-23T01:22:03.583Z,12.88
2023-03-23T01:23:03.692Z,12.88
2023-03-23T01:24:03.619Z,12.88
2023-03-23T01:25:03.600Z,12.88
2023-03-23T01:26:03.683Z,12.88
2023-03-23T01:27:03.589Z,12.88
2023-03-23T01:28:03.621Z,12.88
2023-03-23T01:29:03.733Z,12.88
2023-03-23T01:30:03.586Z,12.88
2023-03-23T01:31:04.417Z,12.88
2023-03-23T01:32:03.520Z,12.88
2023-03-23T01:33:04.493Z,12.88
2023-03-23T01:34:03.539Z,12.88
2023-03-23T01:35:03.649Z,12.88
2023-03-23T01:36:04.490Z,12.81
2023-03-23T01:37:04.393Z,12.81
2023-03-23T01:38:04.392Z,12.81
2023-03-23T01:39:04.302Z,12.81
2023-03-23T01:40:04.390Z,12.81
2023-03-23T01:41:04.489Z,12.81
2023-03-23T01:42:04.333Z,12.81
2023-03-23T01:43:04.415Z,12.81
2023-03-23T01:44:04.376Z,12.81
2023-03-23T01:45:04.311Z,12.81
2023-03-23T01:46:04.310Z,12.81
2023-03-23T01:47:04.321Z,12.81
2023-03-23T01:48:04.347Z,12.81
2023-03-23T01:49:04.260Z,12.88
2023-03-23T01:50:04.150Z,12.88
2023-03-23T01:51:04.241Z,12.88
2023-03-23T01:52:04.151Z,12.88
2023-03-23T01:53:04.255Z,12.88
2023-03-23T01:54:04.328Z,12.88
2023-03-23T01:55:04.327Z,12.88
2023-03-23T01:56:04.157Z,12.88
2023-03-23T01:57:04.088Z,12.88
2023-03-23T01:58:04.174Z,12.88
2023-03-23T01:59:04.151Z,12.81
2023-03-23T02:00:04.152Z,12.88
2023-03-23T02:01:04.243Z,12.88
2023-03-23T02:02:04.169Z,12.88
2023-03-23T02:03:04.149Z,12.88
2023-03-23T02:04:04.178Z,12.88
2023-03-23T02:05:04.066Z,12.88
2023-03-23T02:06:04.094Z,12.94
2023-03-23T02:07:04.242Z,13.00
2023-03-23T02:08:04.068Z,13.00
2023-03-23T02:09:10.499Z,13.00
2023-03-23T02:10:04.159Z,13.06
2023-03-23T02:11:04.205Z,13.00
2023-03-23T02:12:04.069Z,13.00
2023-03-23T02:13:04.071Z,12.94
2023-03-23T02:14:03.997Z,13.00
2023-03-23T02:15:03.922Z,13.00
2023-03-23T02:16:03.938Z,13.06
2023-03-23T02:17:03.941Z,13.06
2023-03-23T02:18:03.947Z,13.06
2023-03-23T02:19:03.912Z,13.06
2023-03-23T02:20:04.006Z,13.06
2023-03-23T02:21:03.990Z,13.06
2023-03-23T02:22:03.940Z,13.00
2023-03-23T02:23:03.847Z,13.00
2023-03-23T02:24:03.853Z,13.00
2023-03-23T02:25:03.869Z,13.00
2023-03-23T02:26:03.841Z,13.00
2023-03-23T02:27:03.851Z,13.06
2023-03-23T02:28:03.910Z,13.00
2023-03-23T02:29:03.912Z,13.00
2023-03-23T02:30:03.937Z,13.00
2023-03-23T02:31:03.858Z,13.00
2023-03-23T02:32:03.908Z,13.00
2023-03-23T02:33:04.075Z,12.94
2023-03-23T02:34:04.080Z,12.94
2023-03-23T02:35:04.010Z,13.00
2023-03-23T02:36:04.055Z,12.94
2023-03-23T02:37:03.861Z,13.00
2023-03-23T02:38:03.833Z,13.00
2023-03-23T02:39:03.778Z,12.94
2023-03-23T02:40:03.773Z,12.94
2023-03-23T02:41:03.767Z,13.00
2023-03-23T02:42:03.864Z,13.00
2023-03-23T02:43:03.837Z,12.94
2023-03-23T02:44:03.782Z,12.94
2023-03-23T02:45:03.826Z,12.94
2023-03-23T02:48:03.752Z,12.94
2023-03-23T02:49:03.837Z,13.00
2023-03-23T02:50:03.758Z,12.94
2023-03-23T02:51:03.686Z,12.94
2023-03-23T02:52:03.590Z,12.94
2023-03-23T02:53:03.506Z,12.94
2023-03-23T02:54:03.680Z,12.94
2023-03-23T02:55:03.529Z,12.94
2023-03-23T02:56:03.610Z,12.94
2023-03-23T02:57:03.685Z,12.94
2023-03-23T02:58:03.664Z,12.94
2023-03-23T02:59:03.706Z,12.88
2023-03-23T03:00:03.609Z,12.88
2023-03-23T03:01:03.610Z,12.88
2023-03-23T03:02:03.528Z,12.88
2023-03-23T03:03:03.564Z,12.88
2023-03-23T03:04:04.466Z,12.88
2023-03-23T03:05:04.413Z,12.88
2023-03-23T03:06:03.510Z,12.94
2023-03-23T03:07:04.461Z,12.88
2023-03-23T03:08:04.428Z,12.88
2023-03-23T03:09:04.478Z,12.88
2023-03-23T03:10:04.333Z,12.88
2023-03-23T03:11:04.415Z,12.88
2023-03-23T03:12:04.332Z,12.88
2023-03-23T03:13:04.313Z,12.94
2023-03-23T03:14:04.147Z,12.88
2023-03-23T03:15:04.308Z,12.88
2023-03-23T03:16:04.226Z,12.88
2023-03-23T03:17:04.358Z,12.81
2023-03-23T03:18:04.395Z,12.81
2023-03-23T03:19:04.303Z,12.81
2023-03-23T03:20:04.275Z,12.81
2023-03-23T03:21:04.236Z,12.81
2023-03-23T03:22:04.176Z,12.81
2023-03-23T03:23:04.224Z,12.75
2023-03-23T03:24:04.182Z,12.75
2023-03-23T03:25:04.302Z,12.75
2023-03-23T03:26:04.175Z,12.75
2023-03-23T03:27:04.092Z,12.75
2023-03-23T03:28:04.266Z,12.75
2023-03-23T03:29:04.160Z,12.75
2023-03-23T03:30:04.108Z,12.81
2023-03-23T03:31:04.166Z,12.81
2023-03-23T03:32:04.008Z,12.81
2023-03-23T03:33:03.906Z,12.81
2023-03-23T03:34:04.014Z,12.81
2023-03-23T03:35:04.020Z,12.75
2023-03-23T03:36:03.959Z,12.75
2023-03-23T03:37:03.867Z,12.75
2023-03-23T03:38:03.831Z,12.75
2023-03-23T03:39:03.995Z,12.75
2023-03-23T03:40:03.830Z,12.75
2023-03-23T03:41:03.845Z,12.69
2023-03-23T03:42:03.850Z,12.75
2023-03-23T03:43:03.847Z,12.75
2023-03-23T03:44:03.850Z,12.75
2023-03-23T03:45:03.850Z,12.75
2023-03-23T03:46:03.832Z,12.75
2023-03-23T03:47:03.829Z,12.69
2023-03-23T03:48:03.842Z,12.69
2023-03-23T03:49:03.849Z,12.69
2023-03-23T03:50:03.831Z,12.69
2023-03-23T03:51:03.686Z,12.69
2023-03-23T03:52:03.776Z,12.69
2023-03-23T03:53:03.761Z,12.69
2023-03-23T03:54:03.791Z,12.69
2023-03-23T03:55:03.828Z,12.62
2023-03-23T03:56:03.844Z,12.62
2023-03-23T03:57:03.832Z,12.62
2023-03-23T03:58:03.856Z,12.62
2023-03-23T03:59:21.251Z,12.56
2023-03-23T04:00:03.682Z,12.56
2023-03-23T04:01:03.583Z,12.56
2023-03-23T04:02:03.693Z,12.56
2023-03-23T04:03:03.696Z,12.56
2023-03-23T04:04:03.601Z,12.56
2023-03-23T04:05:03.703Z,12.56
2023-03-23T04:06:03.607Z,12.56
2023-03-23T04:07:03.684Z,12.56
2023-03-23T04:08:09.464Z,12.56
2023-03-23T04:09:07.742Z,12.56
2023-03-23T04:10:03.520Z,12.56
2023-03-23T04:11:03.621Z,12.56
2023-03-23T04:12:03.706Z,12.56
2023-03-23T04:13:03.670Z,12.56
2023-03-23T04:14:03.610Z,12.62
2023-03-23T04:15:05.871Z,12.62
2023-03-23T04:16:07.038Z,12.56
2023-03-23T04:17:03.587Z,12.56
2023-03-23T04:18:03.604Z,12.56
2023-03-23T04:19:03.595Z,12.56
2023-03-23T04:20:03.608Z,12.56
2023-03-23T04:21:04.529Z,12.56
2023-03-23T04:22:04.487Z,12.56
2023-03-23T04:23:04.469Z,12.62
2023-03-23T04:24:04.483Z,12.56
2023-03-23T04:25:03.455Z,12.56
2023-03-23T04:26:04.483Z,12.56
2023-03-23T04:27:04.501Z,12.56
2023-03-23T04:28:04.476Z,12.56
2023-03-23T04:29:04.400Z,12.56
2023-03-23T04:30:04.501Z,12.56
2023-03-23T04:31:04.066Z,12.56
2023-03-23T04:32:03.539Z,12.56
2023-03-23T04:33:03.690Z,12.62
2023-03-23T04:34:03.590Z,12.62
2023-03-23T04:35:12.411Z,12.62
2023-03-23T04:36:03.729Z,12.56
2023-03-23T04:37:03.770Z,12.56
2023-03-23T04:38:03.682Z,12.56
2023-03-23T04:39:03.679Z,12.56
2023-03-23T04:40:03.676Z,12.56
2023-03-23T04:41:03.602Z,12.56
2023-03-23T04:42:03.602Z,12.56
2023-03-23T04:43:03.610Z,12.56
2023-03-23T04:44:03.588Z,12.56
2023-03-23T04:45:03.599Z,12.56
2023-03-23T04:46:03.511Z,12.62
2023-03-23T04:47:03.534Z,12.62
2023-03-23T04:48:03.429Z,12.62
2023-03-23T04:49:04.424Z,12.62
2023-03-23T04:50:04.468Z,12.62
2023-03-23T04:51:03.628Z,12.62
2023-03-23T04:52:03.514Z,12.62
2023-03-23T04:53:03.603Z,12.62
2023-03-23T04:54:03.609Z,12.62
2023-03-23T04:55:04.460Z,12.62
2023-03-23T04:56:04.399Z,12.62
2023-03-23T04:57:04.311Z,12.62
2023-03-23T04:58:04.328Z,12.62
2023-03-23T04:59:04.403Z,12.62
2023-03-23T05:00:04.487Z,12.62
2023-03-23T05:01:04.493Z,12.62
2023-03-23T05:02:13.702Z,12.62
2023-03-23T05:03:04.395Z,12.62
2023-03-23T05:04:04.484Z,12.62
2023-03-23T05:05:04.389Z,12.62
2023-03-23T05:06:04.413Z,12.62
2023-03-23T05:07:04.430Z,12.62
2023-03-23T05:08:04.398Z,12.62
2023-03-23T05:09:04.309Z,12.62
2023-03-23T05:10:04.305Z,12.62
2023-03-23T05:11:04.400Z,12.62
2023-03-23T05:12:04.309Z,12.62
2023-03-23T05:13:04.227Z,12.62
2023-03-23T05:14:04.246Z,12.62
2023-03-23T05:15:04.320Z,12.62
2023-03-23T05:16:04.325Z,12.69
2023-03-23T05:17:04.394Z,12.69
2023-03-23T05:18:04.324Z,12.69
2023-03-23T05:19:04.317Z,12.69
2023-03-23T05:20:04.240Z,12.69
2023-03-23T05:21:04.141Z,12.69
2023-03-23T05:22:04.240Z,12.69
2023-03-23T05:23:04.234Z,12.75
2023-03-23T05:24:04.147Z,12.75
2023-03-23T05:25:04.411Z,12.75
2023-03-23T05:26:04.319Z,12.69
2023-03-23T05:27:04.305Z,12.69
2023-03-23T05:28:04.235Z,12.81
2023-03-23T05:29:04.241Z,12.81
2023-03-23T05:30:04.242Z,12.81
2023-03-23T05:31:04.228Z,12.94
2023-03-23T05:32:04.231Z,12.94
2023-03-23T05:33:04.236Z,12.88
2023-03-23T05:34:04.228Z,12.88
2023-03-23T05:35:04.306Z,12.81
2023-03-23T05:36:04.364Z,12.81
2023-03-23T05:37:04.333Z,12.81
2023-03-23T05:38:04.308Z,12.81
2023-03-23T05:39:04.308Z,12.81
2023-03-23T05:40:04.383Z,12.81
2023-03-23T05:41:04.492Z,12.81
2023-03-23T05:42:04.392Z,13.06
2023-03-23T05:43:04.313Z,13.31
2023-03-23T05:44:04.305Z,13.44
2023-03-23T05:45:04.225Z,13.44
2023-03-23T05:46:04.234Z,13.38
2023-03-23T05:47:04.239Z,13.25
2023-03-23T05:48:04.348Z,13.19
2023-03-23T05:49:04.238Z,13.12
2023-03-23T05:50:04.147Z,13.12
2023-03-23T05:51:04.393Z,13.06
2023-03-23T05:52:04.321Z,13.06
2023-03-23T05:53:04.145Z,13.00
2023-03-23T05:54:04.322Z,13.00
2023-03-23T05:55:04.327Z,13.00
2023-03-23T05:56:04.242Z,13.00
2023-03-23T05:57:04.066Z,13.00
2023-03-23T05:58:04.147Z,13.00
2023-03-23T05:59:04.176Z,12.94
2023-03-23T06:00:04.080Z,13.00
2023-03-23T06:01:04.156Z,13.00
2023-03-23T06:02:04.074Z,13.00
2023-03-23T06:03:04.066Z,13.00
2023-03-23T06:04:04.147Z,13.06
2023-03-23T06:05:04.074Z,13.19
2023-03-23T06:06:04.181Z,13.38
2023-03-23T06:07:04.083Z,13.56
2023-03-23T06:08:04.070Z,13.50
2023-03-23T06:09:04.822Z,13.44
2023-03-23T06:10:04.140Z,13.38
2023-03-23T06:11:04.325Z,13.38
2023-03-23T06:12:04.167Z,13.31
2023-03-23T06:13:04.317Z,13.25
2023-03-23T06:14:04.227Z,13.25
2023-03-23T06:15:04.398Z,13.44
2023-03-23T06:16:04.300Z,13.56
2023-03-23T06:17:04.422Z,13.50
2023-03-23T06:18:04.479Z,13.50
2023-03-23T06:19:03.511Z,13.44
2023-03-23T06:20:03.673Z,13.38
2023-03-23T06:21:03.699Z,13.38
2023-03-23T06:22:03.595Z,13.38
2023-03-23T06:23:03.599Z,13.31
2023-03-23T06:24:03.663Z,13.31
2023-03-23T06:25:03.842Z,13.50
2023-03-23T06:26:03.855Z,13.69
2023-03-23T06:27:03.850Z,13.62
2023-03-23T06:28:03.932Z,13.81
2023-03-23T06:29:03.845Z,14.00
2023-03-23T06:30:03.831Z,13.94
2023-03-23T06:31:03.849Z,13.88
2023-03-23T06:32:03.913Z,13.75
2023-03-23T06:33:03.848Z,13.69
2023-03-23T06:34:03.923Z,13.62
2023-03-23T06:35:03.916Z,13.56
2023-03-23T06:36:03.781Z,13.56
2023-03-23T06:37:03.831Z,13.50
2023-03-23T06:38:03.838Z,13.50
2023-03-23T06:39:03.904Z,13.44
2023-03-23T06:40:03.927Z,13.44
2023-03-23T06:41:04.123Z,13.44
2023-03-23T06:42:03.756Z,13.44
2023-03-23T06:43:03.669Z,13.44
2023-03-23T06:44:03.758Z,13.44
2023-03-23T06:45:03.823Z,13.38
2023-03-23T06:46:04.647Z,13.38
2023-03-23T06:47:03.914Z,13.38
2023-03-23T06:48:03.830Z,13.38
2023-03-23T06:49:03.991Z,13.38
2023-03-23T06:50:03.991Z,13.38
2023-03-23T06:51:03.910Z,13.38
2023-03-23T06:52:03.911Z,13.38
2023-03-23T06:53:03.909Z,13.38
2023-03-23T06:54:03.993Z,13.38
2023-03-23T06:55:03.916Z,13.38
2023-03-23T06:56:03.835Z,13.31
2023-03-23T06:57:03.910Z,13.31
2023-03-23T06:58:03.922Z,13.31
2023-03-23T06:59:03.906Z,13.31
2023-03-23T07:00:03.894Z,13.25
2023-03-23T07:01:03.759Z,13.25
2023-03-23T07:02:03.845Z,13.25
2023-03-23T07:03:03.675Z,13.25
2023-03-23T07:04:03.838Z,13.25
2023-03-23T07:05:03.840Z,13.25
2023-03-23T07:06:06.422Z,13.19
2023-03-23T07:07:03.827Z,13.25
2023-03-23T07:08:03.919Z,13.25
2023-03-23T07:09:03.920Z,13.19
2023-03-23T07:10:03.839Z,13.19
2023-03-23T07:11:03.912Z,13.19
2023-03-23T07:12:03.841Z,13.25
2023-03-23T07:13:03.829Z,13.25
2023-03-23T07:14:03.995Z,13.25
2023-03-23T07:15:03.996Z,13.25
2023-03-23T07:16:04.011Z,13.25
2023-03-23T07:17:03.916Z,13.25
2023-03-23T07:18:03.836Z,13.31
2023-03-23T07:19:03.756Z,13.31
2023-03-23T07:20:03.752Z,13.38
2023-03-23T07:21:03.836Z,13.38
2023-03-23T07:22:03.792Z,13.38
2023-03-23T07:23:03.769Z,13.38
2023-03-23T07:24:03.702Z,13.38
2023-03-23T07:25:03.770Z,13.38
2023-03-23T07:26:03.768Z,13.38
2023-03-23T07:27:03.726Z,13.38
2023-03-23T07:28:03.782Z,13.38
2023-03-23T07:29:03.751Z,13.44
2023-03-23T07:30:03.679Z,13.44
2023-03-23T07:31:03.718Z,13.44
2023-03-23T07:32:03.690Z,13.38
2023-03-23T07:33:03.602Z,13.44
2023-03-23T07:34:03.518Z,13.44
2023-03-23T07:35:03.617Z,13.44
2023-03-23T07:36:03.710Z,13.44
2023-03-23T07:37:03.675Z,13.44
2023-03-23T07:38:03.749Z,13.44
2023-03-23T07:39:03.755Z,13.44
2023-03-23T07:40:03.787Z,13.44
2023-03-23T07:41:03.836Z,13.50
2023-03-23T07:42:03.908Z,13.62
2023-03-23T07:43:04.072Z,13.75
2023-03-23T07:44:03.988Z,13.88
2023-03-23T07:45:03.991Z,14.00
2023-03-23T07:46:04.164Z,14.12
2023-03-23T07:47:04.002Z,14.12
2023-03-23T07:48:07.316Z,14.06
2023-03-23T07:49:03.988Z,14.12
2023-03-23T07:50:04.080Z,14.25
2023-03-23T07:51:03.915Z,14.19
2023-03-23T07:52:03.990Z,14.12
2023-03-23T07:53:04.148Z,14.12
2023-03-23T07:54:05.711Z,14.19
2023-03-23T07:55:04.394Z,14.25
2023-03-23T07:56:04.167Z,14.25
2023-03-23T07:57:04.235Z,14.19
2023-03-23T07:58:04.072Z,14.12
2023-03-23T07:59:04.131Z,14.06
2023-03-23T08:00:04.064Z,14.06
2023-03-23T08:01:04.007Z,14.06
2023-03-23T08:02:03.989Z,14.00
2023-03-23T08:03:03.828Z,13.94
2023-03-23T08:04:03.919Z,13.94
2023-03-23T08:05:03.875Z,13.94
2023-03-23T08:06:03.833Z,13.88
2023-03-23T08:07:03.848Z,13.88
2023-03-23T08:08:03.918Z,13.81
2023-03-23T08:09:03.996Z,13.81
2023-03-23T08:10:04.155Z,13.81
2023-03-23T08:11:04.087Z,13.81
2023-03-23T08:12:03.996Z,13.81
2023-03-23T08:13:04.016Z,13.81
2023-03-23T08:14:04.028Z,13.81
2023-03-23T08:15:03.910Z,13.81
2023-03-23T08:16:03.996Z,13.81
2023-03-23T08:17:04.063Z,13.81
2023-03-23T08:18:04.106Z,13.81
2023-03-23T08:19:08.300Z,13.81
2023-03-23T08:20:03.988Z,13.88
2023-03-23T08:21:04.012Z,13.88
2023-03-23T08:22:04.076Z,13.88
2023-03-23T08:23:04.059Z,13.88
2023-03-23T08:24:03.995Z,13.94
2023-03-23T08:25:03.910Z,13.94
2023-03-23T08:26:03.904Z,13.94
2023-03-23T08:27:03.985Z,13.94
2023-03-23T08:28:03.905Z,13.94
2023-03-23T08:29:03.834Z,14.00
2023-03-23T08:30:04.073Z,14.00
2023-03-23T08:31:04.067Z,14.06
2023-03-23T08:32:04.076Z,14.06
2023-03-23T08:33:04.095Z,14.12
2023-03-23T08:34:04.145Z,14.12
2023-03-23T08:35:04.167Z,14.12
2023-03-23T08:36:04.256Z,14.12
2023-03-23T08:37:04.059Z,14.19
2023-03-23T08:38:04.061Z,14.19
2023-03-23T08:39:04.063Z,14.19
2023-03-23T08:40:04.205Z,14.19
2023-03-23T08:41:04.142Z,14.25
2023-03-23T08:42:04.153Z,14.25
2023-03-23T08:43:04.145Z,14.31
2023-03-23T08:44:04.221Z,14.38
2023-03-23T08:45:04.224Z,14.38
2023-03-23T08:46:04.321Z,14.44
2023-03-23T08:47:04.478Z,14.44
2023-03-23T08:48:04.486Z,14.50
2023-03-23T08:49:03.614Z,14.50
2023-03-23T08:50:03.596Z,14.50
2023-03-23T08:51:03.603Z,14.56
2023-03-23T08:52:03.596Z,14.56
2023-03-23T08:53:03.745Z,14.56
2023-03-23T08:54:03.583Z,14.62
2023-03-23T08:55:03.676Z,14.62
2023-03-23T08:56:04.635Z,14.69
2023-03-23T08:57:03.758Z,14.69
2023-03-23T08:58:03.668Z,14.69
2023-03-23T08:59:03.678Z,14.75
2023-03-23T09:00:03.676Z,14.75
2023-03-23T09:01:03.671Z,14.75
2023-03-23T09:02:03.668Z,14.81
2023-03-23T09:03:03.587Z,14.81
2023-03-23T09:04:03.670Z,14.81
2023-03-23T09:05:03.590Z,14.88
2023-03-23T09:06:03.592Z,14.88
2023-03-23T09:07:03.512Z,14.88
2023-03-23T09:08:03.593Z,14.94
2023-03-23T09:09:03.582Z,14.94
2023-03-23T09:10:03.507Z,14.94
2023-03-23T09:11:03.593Z,15.00
2023-03-23T09:12:03.593Z,15.06
2023-03-23T09:13:03.516Z,15.06
2023-03-23T09:14:03.602Z,15.12
2023-03-23T09:15:03.606Z,15.19
2023-03-23T09:16:03.686Z,15.19
2023-03-23T09:17:03.847Z,15.25
2023-03-23T09:18:03.667Z,15.31
2023-03-23T09:19:03.617Z,15.38
2023-03-23T09:20:03.660Z,15.44
2023-03-23T09:21:03.614Z,15.44
2023-03-23T09:22:03.677Z,15.50
2023-03-23T09:23:03.585Z,15.56
2023-03-23T09:24:03.624Z,15.56
2023-03-23T09:25:03.663Z,15.62
2023-03-23T09:26:03.673Z,15.69
2023-03-23T09:27:03.598Z,15.69
2023-03-23T09:28:03.674Z,15.75
2023-03-23T09:29:03.668Z,15.75
2023-03-23T09:30:03.672Z,15.75
2023-03-23T09:31:03.755Z,15.75
2023-03-23T09:32:03.701Z,15.75
2023-03-23T09:33:03.762Z,15.81
2023-03-23T09:34:03.672Z,15.88
2023-03-23T09:35:03.757Z,16.00
2023-03-23T09:36:03.820Z,16.19
2023-03-23T09:37:04.085Z,16.44
2023-03-23T09:38:04.075Z,16.62
2023-03-23T09:39:04.088Z,16.69
2023-03-23T09:40:06.574Z,16.94
2023-03-23T09:41:04.072Z,17.12
2023-03-23T09:42:03.908Z,17.25
2023-03-23T09:43:03.905Z,17.19
2023-03-23T09:44:03.994Z,17.12
2023-03-23T09:45:04.079Z,17.06
2023-03-23T09:46:03.987Z,17.00
2023-03-23T09:47:03.983Z,16.94
2023-03-23T09:48:03.990Z,16.88
2023-03-23T09:49:04.088Z,16.81
2023-03-23T09:50:03.939Z,16.75
2023-03-23T09:51:03.823Z,16.75
2023-03-23T09:52:03.929Z,16.69
2023-03-23T09:53:03.910Z,16.69
2023-03-23T09:54:04.120Z,16.69
2023-03-23T09:55:03.826Z,16.69
2023-03-23T09:56:03.901Z,16.69
2023-03-23T09:57:03.843Z,16.69
2023-03-23T09:58:04.000Z,16.75
2023-03-23T09:59:03.908Z,16.75
2023-03-23T10:00:04.070Z,16.81
2023-03-23T10:01:04.087Z,16.81
2023-03-23T10:02:03.993Z,16.88
2023-03-23T10:03:04.070Z,16.88
2023-03-23T10:04:03.985Z,16.88
2023-03-23T10:05:03.996Z,16.88
2023-03-23T10:06:03.914Z,16.88
2023-03-23T10:07:03.922Z,16.88
2023-03-23T10:08:03.971Z,16.81
2023-03-23T10:09:04.023Z,16.81
2023-03-23T10:10:03.989Z,16.75
2023-03-23T10:11:03.926Z,16.75
2023-03-23T10:12:03.920Z,16.75
2023-03-23T10:13:03.915Z,16.75
2023-03-23T10:14:03.983Z,16.69
2023-03-23T10:15:04.090Z,16.69
2023-03-23T10:16:04.166Z,16.69
2023-03-23T10:17:04.230Z,16.69
2023-03-23T10:18:04.236Z,16.69
2023-03-23T10:19:04.156Z,16.62
2023-03-23T10:20:04.237Z,16.62
2023-03-23T10:21:04.234Z,16.56
2023-03-23T10:22:04.227Z,16.56
2023-03-23T10:23:04.237Z,16.56
2023-03-23T10:24:04.224Z,16.50
2023-03-23T10:25:04.234Z,16.50
2023-03-23T10:26:04.310Z,16.44
2023-03-23T10:27:04.393Z,16.44
2023-03-23T10:28:04.301Z,16.44
2023-03-23T10:29:04.303Z,16.38
2023-03-23T10:30:04.384Z,16.38
2023-03-23T10:31:03.528Z,16.31
2023-03-23T10:32:03.519Z,16.31
2023-03-23T10:33:03.602Z,16.25
2023-03-23T10:34:03.676Z,16.25
2023-03-23T10:35:03.838Z,16.25
2023-03-23T10:36:03.768Z,16.19
2023-03-23T10:37:03.669Z,16.19
2023-03-23T10:38:03.755Z,16.19
2023-03-23T10:39:03.831Z,16.12
2023-03-23T10:40:03.750Z,16.12
2023-03-23T10:41:03.837Z,16.12
2023-03-23T10:42:03.929Z,16.06
2023-03-23T10:43:03.915Z,16.06
2023-03-23T10:44:03.931Z,16.06
2023-03-23T10:45:03.751Z,16.06
2023-03-23T10:46:04.115Z,16.06
2023-03-23T10:47:03.830Z,16.06
2023-03-23T10:48:03.837Z,16.06
2023-03-23T10:49:03.996Z,16.06
2023-03-23T10:50:04.001Z,16.00
2023-03-23T10:51:04.001Z,16.00
2023-03-23T10:52:03.912Z,16.00
2023-03-23T10:53:05.654Z,15.94
2023-03-23T10:54:04.019Z,15.94
2023-03-23T10:55:04.080Z,15.94
2023-03-23T10:56:03.924Z,15.94
2023-03-23T10:57:04.103Z,15.94
2023-03-23T10:58:03.988Z,15.94
2023-03-23T10:59:04.077Z,16.00
2023-03-23T11:00:04.321Z,16.00
2023-03-23T11:01:04.158Z,16.00
2023-03-23T11:02:04.155Z,16.00
2023-03-23T11:03:05.828Z,16.00
2023-03-23T11:04:04.285Z,16.00
2023-03-23T11:05:09.357Z,16.00
2023-03-23T11:06:04.067Z,16.00
2023-03-23T11:07:04.080Z,16.00
2023-03-23T11:08:04.163Z,16.00
2023-03-23T11:09:04.240Z,16.00
2023-03-23T11:10:04.252Z,16.00
2023-03-23T11:11:04.244Z,16.00
2023-03-23T11:12:04.265Z,16.00
2023-03-23T11:13:04.292Z,16.00
2023-03-23T11:14:04.153Z,16.00
2023-03-23T11:15:04.229Z,16.00
2023-03-23T11:16:04.315Z,16.00
2023-03-23T11:17:10.422Z,16.00
2023-03-23T11:18:04.478Z,16.00
2023-03-23T11:19:04.401Z,16.00
2023-03-23T11:20:04.387Z,16.00
2023-03-23T11:21:03.439Z,16.00
2023-03-23T11:22:03.589Z,15.94
2023-03-23T11:23:03.825Z,15.94
2023-03-23T11:24:09.464Z,15.94
2023-03-23T11:25:03.671Z,15.94
2023-03-23T11:26:03.667Z,15.88
2023-03-23T11:27:03.760Z,15.88
2023-03-23T11:28:03.675Z,15.88
2023-03-23T11:29:03.760Z,15.88
2023-03-23T11:30:03.689Z,15.88
2023-03-23T11:31:03.749Z,15.88
2023-03-23T11:32:03.709Z,15.88
2023-03-23T11:33:03.763Z,15.88
2023-03-23T11:34:06.191Z,15.88
2023-03-23T11:35:13.965Z,15.88
2023-03-23T11:36:03.784Z,15.94
2023-03-23T11:37:03.726Z,15.94
2023-03-23T11:38:03.753Z,15.94
2023-03-23T11:39:03.770Z,16.00
2023-03-23T11:40:03.755Z,16.00
2023-03-23T11:41:03.675Z,16.00
2023-03-23T11:42:09.406Z,16.00
2023-03-23T11:43:03.517Z,16.00
2023-03-23T11:44:03.667Z,16.00
2023-03-23T11:45:03.624Z,16.00
2023-03-23T11:46:03.517Z,16.00
2023-03-23T11:47:03.507Z,16.00
2023-03-23T11:48:03.518Z,16.00
2023-03-23T11:49:08.153Z,16.00
2023-03-23T11:50:04.478Z,16.00
2023-03-23T11:51:04.496Z,16.00
2023-03-23T11:52:04.478Z,16.00
2023-03-23T11:53:04.397Z,16.00
2023-03-23T11:54:04.469Z,16.00
2023-03-23T11:55:04.400Z,16.00
2023-03-23T11:56:03.526Z,16.00
2023-03-23T11:57:04.474Z,16.00
2023-03-23T11:58:03.592Z,15.94
2023-03-23T11:59:03.671Z,15.94
2023-03-23T12:00:03.587Z,15.94
2023-03-23T12:01:03.601Z,15.94
2023-03-23T12:02:11.704Z,15.88
2023-03-23T12:03:03.588Z,15.88
2023-03-23T12:04:03.675Z,15.88
2023-03-23T12:05:03.686Z,15.88
2023-03-23T12:06:03.757Z,15.88
2023-03-23T12:07:03.749Z,15.88
2023-03-23T12:08:03.673Z,15.94
2023-03-23T12:09:03.684Z,15.94
2023-03-23T12:10:03.747Z,15.94
2023-03-23T12:11:04.107Z,15.94
2023-03-23T12:12:03.680Z,15.94
2023-03-23T12:13:03.607Z,15.94
2023-03-23T12:14:03.673Z,16.00
2023-03-23T12:15:03.592Z,16.06
2023-03-23T12:16:03.666Z,16.06
2023-03-23T12:17:03.834Z,16.06
2023-03-23T12:18:03.753Z,16.12
2023-03-23T12:19:03.904Z,16.12
2023-03-23T12:20:04.068Z,16.19
2023-03-23T12:21:04.077Z,16.19
2023-03-23T12:22:03.986Z,16.19
2023-03-23T12:23:03.907Z,16.25
2023-03-23T12:24:05.235Z,16.25
2023-03-23T12:25:04.070Z,16.25
2023-03-23T12:26:04.077Z,16.31
2023-03-23T12:27:04.073Z,16.38
2023-03-23T12:28:04.233Z,16.44
2023-03-23T12:29:04.003Z,16.56
2023-03-23T12:30:03.925Z,16.62
2023-03-23T12:31:03.832Z,16.69
2023-03-23T12:32:03.840Z,16.69
2023-03-23T12:33:03.754Z,16.69
2023-03-23T12:34:03.754Z,16.75
2023-03-23T12:35:03.755Z,16.75
2023-03-23T12:36:03.754Z,16.75
2023-03-23T12:37:03.792Z,16.75
2023-03-23T12:38:03.704Z,16.75
2023-03-23T12:39:03.747Z,16.75
2023-03-23T12:40:03.850Z,16.75
2023-03-23T12:41:03.930Z,16.75
2023-03-23T12:42:04.000Z,16.81
2023-03-23T12:43:03.844Z,16.81
2023-03-23T12:44:03.767Z,16.81
2023-03-23T12:45:03.774Z,16.81
2023-03-23T12:46:03.683Z,16.81
2023-03-23T12:47:03.675Z,16.81
2023-03-23T12:48:03.759Z,16.81
2023-03-23T12:49:03.750Z,16.81
2023-03-23T12:50:03.915Z,16.81
2023-03-23T12:51:03.933Z,16.75
2023-03-23T12:52:03.842Z,16.75
2023-03-23T12:53:03.935Z,16.75
2023-03-23T12:54:03.842Z,16.75